Time;durP1;ratioP1;P1;durP2;ratioP2;P2;SDS_P1;SDS_P2;PMS_P1;PMS_P2;Temp;Humidity;BMP_temperature;BMP_pressure;BME280_temperature;BME280_humidity;BME280_pressure;Samples;Min_cycle;Max_cycle;Signal;HPM_P1;HPM_P2
2022/05/27 00:01:13;;;;;;;7.43;1.63;;;;;;;15.01;100.00;96953.38;5016417;28;20133;-73
2022/05/27 00:03:39;;;;;;;7.45;1.40;;;;;;;14.95;100.00;96953.66;5016821;28;20041;-73
2022/05/27 00:06:04;;;;;;;8.38;1.90;;;;;;;14.91;100.00;96949.84;5014157;28;20033;-73
2022/05/27 00:08:30;;;;;;;8.10;1.92;;;;;;;14.96;100.00;96950.69;5014475;28;20060;-74
2022/05/27 00:10:59;;;;;;;9.20;1.70;;;;;;;14.98;100.00;96948.53;4997441;28;20059;-72
2022/05/27 00:13:25;;;;;;;5.75;1.27;;;;;;;14.94;100.00;96941.22;5014500;28;20045;-73
2022/05/27 00:15:51;;;;;;;4.45;1.42;;;;;;;14.89;100.00;96950.13;5011009;28;20068;-72
2022/05/27 00:18:17;;;;;;;5.40;2.13;;;;;;;14.87;100.00;96954.16;5013784;28;20301;-73
2022/05/27 00:20:43;;;;;;;9.25;1.83;;;;;;;14.83;100.00;96943.09;5014975;28;20040;-75
2022/05/27 00:23:09;;;;;;;5.55;1.40;;;;;;;14.84;100.00;96941.19;5008136;28;20074;-73
2022/05/27 00:25:35;;;;;;;8.18;1.95;;;;;;;14.84;100.00;96949.28;5013177;28;20350;-72
2022/05/27 00:28:01;;;;;;;9.15;2.10;;;;;;;14.79;100.00;96936.63;5014819;28;20496;-73
2022/05/27 00:30:27;;;;;;;10.80;2.20;;;;;;;14.73;100.00;96949.25;5013793;28;20131;-74
2022/05/27 00:32:53;;;;;;;9.57;2.55;;;;;;;14.63;100.00;96948.38;5021041;28;20515;-72
2022/05/27 00:35:19;;;;;;;10.65;2.47;;;;;;;14.51;100.00;96947.78;5037154;28;20087;-76
2022/05/27 00:37:45;;;;;;;10.77;2.85;;;;;;;14.44;100.00;96953.38;5019557;28;20128;-73
2022/05/27 00:40:11;;;;;;;12.10;2.95;;;;;;;14.31;100.00;96953.81;5017698;28;20103;-76
2022/05/27 00:42:42;;;;;;;10.10;3.55;;;;;;;14.21;100.00;96943.81;5020813;28;20055;-73
2022/05/27 00:45:22;;;;;;;9.73;2.95;;;;;;;14.23;100.00;96947.06;5021150;28;20041;-73
2022/05/27 00:47:52;;;;;;;9.73;3.28;;;;;;;14.23;100.00;96947.84;5023097;28;20065;-74
2022/05/27 00:50:25;;;;;;;11.43;3.17;;;;;;;14.21;100.00;96949.19;5019887;28;20046;-73
2022/05/27 00:52:51;;;;;;;11.90;3.25;;;;;;;14.17;100.00;96948.91;5019098;28;20519;-74
2022/05/27 00:55:23;;;;;;;12.65;3.13;;;;;;;14.12;100.00;96943.50;5021331;28;20159;-73
2022/05/27 00:57:53;;;;;;;9.30;2.80;;;;;;;14.10;100.00;96947.53;5023893;28;20056;-75
2022/05/27 01:00:21;;;;;;;11.65;3.28;;;;;;;14.02;100.00;96951.50;5004267;28;20045;-75
2022/05/27 01:02:47;;;;;;;11.05;3.20;;;;;;;14.02;100.00;96943.44;5019843;28;20048;-74
2022/05/27 01:05:17;;;;;;;9.40;3.08;;;;;;;13.98;100.00;96945.00;5022677;28;20068;-76
2022/05/27 01:07:43;;;;;;;13.40;3.38;;;;;;;14.00;100.00;96942.06;5018435;28;20096;-74
2022/05/27 01:10:11;;;;;;;11.95;3.10;;;;;;;14.00;100.00;96932.09;5020097;28;20737;-75
2022/05/27 01:13:07;;;;;;;15.80;3.05;;;;;;;14.00;100.00;96942.84;5034698;28;20099;-72
2022/05/27 01:15:48;;;;;;;10.90;2.83;;;;;;;13.97;100.00;96932.63;5017474;28;20566;-75
2022/05/27 01:21:32;;;;;;;10.55;3.10;;;;;;;13.99;100.00;96935.84;5017936;28;20476;-74
2022/05/27 01:24:26;;;;;;;11.43;2.80;;;;;;;13.96;100.00;96938.28;5019309;28;20049;-73
2022/05/27 01:27:07;;;;;;;7.93;2.67;;;;;;;13.93;100.00;96931.53;5015330;28;20094;-74
2022/05/27 01:30:00;;;;;;;5.40;2.60;;;;;;;13.91;100.00;96933.66;5019097;28;20677;-75
2022/05/27 01:32:40;;;;;;;9.02;2.88;;;;;;;13.95;100.00;96934.78;5021615;28;20041;-76
2022/05/27 01:35:34;;;;;;;11.88;2.70;;;;;;;13.86;100.00;96923.69;5008218;28;20037;-74
2022/05/27 01:38:18;;;;;;;7.97;2.70;;;;;;;13.93;100.00;96926.97;5018377;28;20124;-74
2022/05/27 01:41:08;;;;;;;6.55;2.88;;;;;;;13.90;100.00;96926.66;5017435;28;20045;-74
2022/05/27 01:43:47;;;;;;;10.35;2.83;;;;;;;13.82;100.00;96924.44;5015887;28;20048;-75
2022/05/27 01:46:27;;;;;;;6.07;1.95;;;;;;;13.77;100.00;96927.88;5014950;28;20037;-76
2022/05/27 01:49:30;;;;;;;6.00;2.22;;;;;;;13.82;100.00;96921.75;5018323;28;20029;-73
2022/05/27 01:52:18;;;;;;;11.48;2.55;;;;;;;13.81;100.00;96925.50;5018893;28;20037;-74
2022/05/27 01:55:00;;;;;;;9.85;2.20;;;;;;;13.82;100.00;96911.81;5005348;28;20365;-75
2022/05/27 01:58:12;;;;;;;14.38;2.03;;;;;;;13.85;100.00;96918.53;5018728;28;20451;-73
2022/05/27 02:00:42;;;;;;;7.72;2.08;;;;;;;13.75;100.00;96919.28;4978859;28;20066;-72
2022/05/27 02:03:42;;;;;;;10.40;2.50;;;;;;;13.71;100.00;96917.38;4979950;28;20106;-73
2022/05/27 02:06:17;;;;;;;8.05;2.15;;;;;;;13.66;100.00;96916.25;4997352;28;20416;-73
2022/05/27 02:08:51;;;;;;;4.25;1.73;;;;;;;13.66;100.00;96910.88;5013507;28;20557;-72
2022/05/27 02:11:22;;;;;;;4.32;1.48;;;;;;;13.71;100.00;96914.69;5019707;28;20111;-74
2022/05/27 02:13:59;;;;;;;6.20;1.80;;;;;;;13.69;100.00;96911.41;5015053;28;20052;-72
2022/05/27 02:16:31;;;;;;;5.03;1.67;;;;;;;13.65;100.00;96920.00;5015844;28;20038;-73
2022/05/27 02:19:31;;;;;;;3.97;1.73;;;;;;;13.60;100.00;96911.09;5016464;28;20045;-74
2022/05/27 02:22:02;;;;;;;6.25;1.77;;;;;;;13.62;100.00;96909.78;5013459;28;20593;-72
2022/05/27 02:24:39;;;;;;;4.97;1.75;;;;;;;13.62;100.00;96900.91;5018294;28;20159;-72
2022/05/27 02:27:43;;;;;;;5.93;1.88;;;;;;;13.60;100.00;96900.34;5014776;28;20496;-72
2022/05/27 02:30:12;;;;;;;3.35;2.00;;;;;;;13.58;100.00;96902.47;5010100;28;20037;-75
2022/05/27 02:35:07;;;;;;;5.43;1.52;;;;;;;13.60;100.00;96903.03;5014075;28;20053;-73
2022/05/27 02:35:39;;;;;;;4.18;1.67;;;;;;;13.60;100.00;96906.50;5002491;28;20087;-74
2022/05/27 02:38:04;;;;;;;6.15;1.88;;;;;;;13.61;100.00;96899.25;5016875;28;20150;-73
2022/05/27 02:40:42;;;;;;;7.22;2.40;;;;;;;13.63;100.00;96889.06;5015517;28;20676;-74
2022/05/27 02:43:10;;;;;;;4.18;1.63;;;;;;;13.66;100.00;96888.56;5015361;28;20057;-73
2022/05/27 02:46:07;;;;;;;9.77;2.88;;;;;;;13.65;100.00;96893.13;5017089;28;20124;-74
2022/05/27 02:48:41;;;;;;;7.95;2.00;;;;;;;13.52;100.00;96884.66;4991249;28;20058;-75
2022/05/27 02:51:06;;;;;;;8.57;1.90;;;;;;;13.52;100.00;96893.53;5016170;28;20562;-72
2022/05/27 02:53:41;;;;;;;7.35;2.03;;;;;;;13.56;100.00;96893.84;5015741;28;20033;-72
2022/05/27 02:56:13;;;;;;;6.57;1.80;;;;;;;13.56;100.00;96883.91;5017480;28;20068;-74
2022/05/27 02:58:39;;;;;;;4.45;1.88;;;;;;;13.54;100.00;96886.06;5017498;28;20084;-76
2022/05/27 03:01:05;;;;;;;6.22;1.90;;;;;;;13.55;100.00;96890.38;5014928;28;20131;-72
2022/05/27 03:03:30;;;;;;;7.10;1.90;;;;;;;13.51;100.00;96883.84;5012904;28;20849;-75
2022/05/27 03:06:08;;;;;;;6.05;2.10;;;;;;;13.50;100.00;96878.75;5018065;28;20393;-73
2022/05/27 03:08:40;;;;;;;4.45;1.70;;;;;;;13.45;100.00;96882.19;5017613;28;20538;-73
2022/05/27 03:11:24;;;;;;;6.18;2.05;;;;;;;13.46;100.00;96873.06;5014338;28;20041;-73
2022/05/27 03:14:23;;;;;;;8.30;2.10;;;;;;;13.42;100.00;96884.59;5012683;28;20115;-73
2022/05/27 03:17:15;;;;;;;9.68;2.38;;;;;;;13.36;100.00;96881.03;5016989;28;20487;-73
2022/05/27 03:20:02;;;;;;;12.65;2.00;;;;;;;13.32;100.00;96885.31;5006813;28;20038;-73
2022/05/27 03:22:53;;;;;;;9.38;2.08;;;;;;;13.27;100.00;96885.28;5014883;28;20049;-72
2022/05/27 03:25:32;;;;;;;3.88;1.95;;;;;;;13.23;100.00;96884.13;5016053;28;20056;-73
2022/05/27 03:28:02;;;;;;;4.03;2.20;;;;;;;13.15;100.00;96888.09;5012828;28;20052;-72
2022/05/27 03:30:45;;;;;;;5.75;1.88;;;;;;;12.94;100.00;96886.25;5015565;28;20037;-73
2022/05/27 03:33:24;;;;;;;6.18;1.95;;;;;;;12.94;100.00;96889.75;5016520;28;20076;-75
2022/05/27 03:35:56;;;;;;;5.90;2.00;;;;;;;12.96;100.00;96878.75;5018586;28;20037;-75
2022/05/27 03:38:33;;;;;;;5.28;2.28;;;;;;;12.86;100.00;96887.53;5015454;28;20099;-76
2022/05/27 03:41:05;;;;;;;8.50;2.42;;;;;;;12.83;100.00;96891.50;5014082;28;20065;-75
2022/05/27 03:43:35;;;;;;;6.13;2.15;;;;;;;12.81;100.00;96884.78;5012876;28;20497;-75
2022/05/27 03:46:02;;;;;;;6.27;2.30;;;;;;;12.80;100.00;96885.84;5015468;28;20046;-73
2022/05/27 03:48:31;;;;;;;9.73;2.30;;;;;;;12.74;100.00;96881.47;4999398;28;20356;-75
2022/05/27 03:51:06;;;;;;;5.40;2.20;;;;;;;12.63;100.00;96885.94;5017860;28;20042;-73
2022/05/27 03:56:15;;;;;;;8.60;2.65;;;;;;;12.65;100.00;96880.31;5013322;28;20180;-72
2022/05/27 03:58:41;;;;;;;5.40;2.22;;;;;;;12.67;100.00;96880.84;5012442;28;20087;-74
2022/05/27 04:01:06;;;;;;;7.85;2.60;;;;;;;12.65;100.00;96885.66;5016834;28;20046;-73
2022/05/27 04:03:32;;;;;;;5.35;1.85;;;;;;;12.56;100.00;96885.31;5014821;28;20087;-72
2022/05/27 04:05:57;;;;;;;4.13;2.03;;;;;;;12.51;100.00;96883.34;5015336;28;20048;-75
2022/05/27 04:08:23;;;;;;;6.90;2.20;;;;;;;12.53;100.00;96883.13;5015297;28;20033;-73
2022/05/27 04:10:48;;;;;;;7.38;2.60;;;;;;;12.50;100.00;96886.28;5015736;28;20037;-73
2022/05/27 04:13:14;;;;;;;5.65;2.13;;;;;;;12.47;100.00;96892.19;5013852;28;20033;-72
2022/05/27 04:15:39;;;;;;;9.13;2.88;;;;;;;12.43;100.00;96886.47;5016055;28;20129;-73
2022/05/27 04:18:05;;;;;;;6.80;2.47;;;;;;;12.48;100.00;96894.59;5013891;28;20512;-75
2022/05/27 04:20:30;;;;;;;4.53;2.03;;;;;;;12.39;100.00;96892.63;5013354;28;20684;-72
2022/05/27 04:22:56;;;;;;;7.82;2.90;;;;;;;12.35;100.00;96889.59;5013777;28;20061;-73
2022/05/27 04:25:21;;;;;;;5.60;2.50;;;;;;;12.40;100.00;96892.34;5015576;28;20117;-73
2022/05/27 04:27:47;;;;;;;6.03;2.30;;;;;;;12.33;100.00;96894.41;5015257;28;20048;-74
2022/05/27 04:30:14;;;;;;;6.35;2.30;;;;;;;12.29;100.00;96895.94;5013897;28;20458;-74
2022/05/27 04:32:39;;;;;;;5.78;2.85;;;;;;;12.32;100.00;96898.16;5015218;28;20041;-73
2022/05/27 04:35:07;;;;;;;7.85;2.70;;;;;;;12.28;100.00;96899.69;5010385;28;20427;-75
2022/05/27 04:37:32;;;;;;;8.10;3.17;;;;;;;12.29;100.00;96904.00;5014812;28;20564;-72
2022/05/27 04:39:58;;;;;;;6.43;3.05;;;;;;;12.24;100.00;96893.22;5016304;28;20046;-73
2022/05/27 04:42:25;;;;;;;7.65;3.50;;;;;;;12.23;100.00;96897.78;5029395;28;20146;-74
2022/05/27 04:44:51;;;;;;;7.95;2.75;;;;;;;12.25;100.00;96894.84;5015239;28;20120;-73
2022/05/27 04:47:16;;;;;;;11.38;4.25;;;;;;;12.23;100.00;96897.78;5014103;28;20145;-73
2022/05/27 04:49:50;;;;;;;15.15;4.93;;;;;;;12.26;100.00;96897.28;5014429;28;20373;-73
2022/05/27 04:52:35;;;;;;;17.20;5.70;;;;;;;12.27;100.00;96890.03;5015050;28;20069;-73
2022/05/27 04:55:03;;;;;;;15.60;5.53;;;;;;;12.30;100.00;96891.44;5015441;28;20049;-73
2022/05/27 04:57:36;;;;;;;11.20;3.92;;;;;;;12.27;100.00;96885.47;5011495;28;20117;-73
2022/05/27 05:00:07;;;;;;;5.88;2.10;;;;;;;12.20;100.00;96890.22;5014407;28;20037;-75
2022/05/27 05:02:33;;;;;;;23.85;6.10;;;;;;;12.24;100.00;96888.66;5013632;28;20049;-74
2022/05/27 05:04:58;;;;;;;13.90;5.60;;;;;;;12.29;100.00;96893.28;5012531;28;20041;-74
2022/05/27 05:07:25;;;;;;;9.45;2.95;;;;;;;12.37;100.00;96892.03;4998393;28;20037;-73
2022/05/27 05:09:50;;;;;;;6.13;2.58;;;;;;;12.31;100.00;96888.50;5014552;28;20694;-73
2022/05/27 05:12:22;;;;;;;8.23;3.60;;;;;;;12.29;100.00;96895.94;5013264;28;20152;-73
2022/05/27 05:14:47;;;;;;;6.03;2.47;;;;;;;12.17;100.00;96892.59;5013076;28;20049;-72
2022/05/27 05:17:13;;;;;;;5.70;2.13;;;;;;;12.13;100.00;96894.13;5014281;28;20435;-73
2022/05/27 05:19:38;;;;;;;4.63;2.15;;;;;;;12.22;100.00;96898.84;5014270;28;20376;-73
2022/05/27 05:22:04;;;;;;;4.47;1.52;;;;;;;12.22;100.00;96896.16;5018881;28;20076;-72
2022/05/27 05:24:30;;;;;;;4.15;1.67;;;;;;;12.22;100.00;96900.72;5006336;28;20037;-73
2022/05/27 05:26:57;;;;;;;3.10;1.55;;;;;;;12.23;100.00;96899.66;5022286;28;20045;-73
2022/05/27 05:29:22;;;;;;;2.00;1.00;;;;;;;12.23;100.00;96896.97;5017259;28;20123;-73
2022/05/27 05:31:48;;;;;;;4.40;1.38;;;;;;;12.23;100.00;96903.16;5019647;28;20547;-74
2022/05/27 05:34:13;;;;;;;2.55;1.15;;;;;;;12.20;100.00;96908.19;5016865;28;20451;-73
2022/05/27 05:36:39;;;;;;;4.38;1.20;;;;;;;12.23;100.00;96891.59;5015191;28;20037;-76
2022/05/27 05:39:05;;;;;;;3.00;1.42;;;;;;;12.15;100.00;96897.41;5022603;28;20056;-73
2022/05/27 05:41:41;;;;;;;3.85;1.27;;;;;;;12.23;100.00;96902.34;5017343;28;20036;-77
2022/05/27 05:44:08;;;;;;;4.20;1.42;;;;;;;12.27;100.00;96890.03;5019675;28;20042;-74
2022/05/27 05:46:35;;;;;;;3.20;1.02;;;;;;;12.36;100.00;96896.59;5003368;28;20032;-76
2022/05/27 05:49:01;;;;;;;2.70;1.20;;;;;;;12.42;100.00;96895.59;5017189;28;20076;-74
2022/05/27 05:51:27;;;;;;;6.22;1.40;;;;;;;12.28;100.00;96900.50;5017498;28;20085;-74
2022/05/27 05:53:54;;;;;;;3.03;1.30;;;;;;;12.42;100.00;96905.53;5016442;28;20137;-73
2022/05/27 05:56:20;;;;;;;3.10;1.13;;;;;;;12.48;100.00;96904.53;5000966;28;20041;-74
2022/05/27 05:58:48;;;;;;;1.95;1.10;;;;;;;12.52;100.00;96895.72;5014692;28;20045;-76
2022/05/27 06:01:13;;;;;;;2.63;0.95;;;;;;;12.54;100.00;96898.97;5018454;28;20042;-74
2022/05/27 06:03:39;;;;;;;6.82;1.20;;;;;;;12.61;100.00;96900.66;5018479;28;20554;-74
2022/05/27 06:06:04;;;;;;;2.75;1.23;;;;;;;12.66;100.00;96895.34;5017806;28;20180;-73
2022/05/27 06:08:31;;;;;;;2.13;0.98;;;;;;;12.53;100.00;96897.38;5018805;28;20125;-73
2022/05/27 06:10:56;;;;;;;2.15;0.90;;;;;;;12.48;100.00;96905.34;4999509;28;20112;-73
2022/05/27 06:13:23;;;;;;;3.22;0.80;;;;;;;12.39;100.00;96903.34;5015956;28;20507;-74
2022/05/27 06:15:48;;;;;;;3.13;1.00;;;;;;;12.44;100.00;96904.19;5019075;28;20111;-75
2022/05/27 06:18:15;;;;;;;3.97;1.00;;;;;;;12.53;100.00;96908.09;5013798;28;20041;-73
2022/05/27 06:20:40;;;;;;;3.75;1.02;;;;;;;12.55;100.00;96907.84;5015079;28;20038;-73
2022/05/27 06:23:07;;;;;;;2.08;0.68;;;;;;;12.59;100.00;96911.63;5012585;28;20058;-73
2022/05/27 06:25:33;;;;;;;3.35;0.90;;;;;;;12.62;100.00;96910.34;5017688;28;20037;-73
2022/05/27 06:36:14;;;;;;;1.85;0.80;;;;;;;12.85;100.00;96911.94;5015461;28;20467;-74
2022/05/27 06:38:39;;;;;;;2.40;0.73;;;;;;;12.95;100.00;96915.56;5016927;28;20041;-76
2022/05/27 06:41:05;;;;;;;1.80;0.60;;;;;;;12.87;100.00;96916.00;5017825;28;20048;-73
2022/05/27 06:43:33;;;;;;;1.63;0.73;;;;;;;12.78;100.00;96922.88;5017115;28;20372;-73
2022/05/27 06:46:00;;;;;;;1.75;0.70;;;;;;;12.85;100.00;96925.38;5017991;28;20389;-73
2022/05/27 06:48:26;;;;;;;2.00;0.50;;;;;;;12.85;100.00;96926.19;5016013;28;20045;-73
2022/05/27 06:50:52;;;;;;;1.25;0.50;;;;;;;12.88;100.00;96916.81;5016672;28;20045;-76
2022/05/27 06:53:18;;;;;;;1.80;0.43;;;;;;;12.81;100.00;96917.00;5000637;28;20057;-73
2022/05/27 06:55:52;;;;;;;1.77;0.70;;;;;;;12.97;100.00;96910.72;5021821;28;20038;-74
2022/05/27 06:58:17;;;;;;;1.73;0.55;;;;;;;12.98;100.00;96920.41;5016369;28;20071;-73
2022/05/27 07:00:43;;;;;;;1.25;0.55;;;;;;;13.08;100.00;96920.53;5016842;28;20046;-73
2022/05/27 07:03:09;;;;;;;1.48;0.68;;;;;;;13.10;100.00;96920.28;5016376;28;20164;-74
2022/05/27 07:05:35;;;;;;;1.90;0.75;;;;;;;13.09;100.00;96918.66;5016574;28;20045;-76
2022/05/27 07:08:05;;;;;;;3.40;1.40;;;;;;;13.09;100.00;96918.66;4993313;28;20076;-72
2022/05/27 07:10:31;;;;;;;5.80;2.53;;;;;;;13.14;100.00;96923.25;5018161;28;20037;-73
2022/05/27 07:13:00;;;;;;;5.68;2.90;;;;;;;13.04;100.00;96922.09;5020980;28;20140;-76
2022/05/27 07:15:27;;;;;;;4.57;2.28;;;;;;;13.13;100.00;96927.81;5015758;28;20112;-73
2022/05/27 07:17:52;;;;;;;4.25;2.33;;;;;;;13.27;100.00;96922.88;5018746;28;20100;-75
2022/05/27 07:20:18;;;;;;;2.17;1.02;;;;;;;13.30;100.00;96920.50;5019160;28;20049;-74
2022/05/27 07:22:44;;;;;;;3.53;1.13;;;;;;;13.29;100.00;96926.13;5019039;28;20052;-74
2022/05/27 07:25:12;;;;;;;2.40;1.20;;;;;;;13.29;100.00;96926.94;5018069;28;20053;-73
2022/05/27 07:27:39;;;;;;;1.73;0.77;;;;;;;13.22;100.00;96930.91;5032917;28;20091;-74
2022/05/27 07:30:05;;;;;;;1.83;0.80;;;;;;;13.29;100.00;96924.25;5015696;28;20042;-76
2022/05/27 07:32:35;;;;;;;1.52;0.60;;;;;;;13.25;100.00;96928.53;5019762;28;20219;-76
2022/05/27 07:35:04;;;;;;;2.60;0.60;;;;;;;13.31;100.00;96919.47;4997801;28;20130;-74
2022/05/27 07:37:30;;;;;;;2.80;1.23;;;;;;;13.28;100.00;96927.19;5014172;28;20041;-75
2022/05/27 07:39:56;;;;;;;1.90;0.90;;;;;;;13.20;100.00;96935.72;5028863;28;20033;-73
2022/05/27 07:42:21;;;;;;;1.48;0.60;;;;;;;13.35;100.00;96923.25;5017958;28;20076;-73
2022/05/27 07:44:47;;;;;;;1.60;0.60;;;;;;;13.26;100.00;96932.03;5015000;28;20068;-75
2022/05/27 07:47:12;;;;;;;0.65;0.32;;;;;;;13.30;100.00;96923.19;5015325;28;20052;-76
2022/05/27 07:49:38;;;;;;;1.70;0.52;;;;;;;13.24;100.00;96931.47;4986354;28;20523;-74
2022/05/27 07:52:05;;;;;;;1.02;0.50;;;;;;;13.24;100.00;96929.59;5015757;28;20110;-75
2022/05/27 07:54:31;;;;;;;1.27;0.60;;;;;;;13.25;100.00;96933.09;5019640;28;20539;-73
2022/05/27 07:56:57;;;;;;;1.20;0.50;;;;;;;13.22;100.00;96925.53;5019034;28;20083;-73
2022/05/27 07:59:22;;;;;;;1.13;0.50;;;;;;;13.32;100.00;96931.00;5031153;28;20128;-73
2022/05/27 08:01:48;;;;;;;0.90;0.40;;;;;;;13.42;100.00;96933.78;5016820;28;20045;-72
2022/05/27 08:04:14;;;;;;;1.23;0.50;;;;;;;13.41;100.00;96928.66;5008794;28;20072;-75
2022/05/27 08:06:40;;;;;;;1.17;0.55;;;;;;;13.34;100.00;96923.50;5002096;28;20274;-76
2022/05/27 08:09:06;;;;;;;1.23;0.50;;;;;;;13.21;100.00;96938.16;5014566;28;20052;-74
2022/05/27 08:11:31;;;;;;;0.63;0.30;;;;;;;13.33;100.00;96928.06;5012963;28;20033;-74
2022/05/27 08:14:00;;;;;;;0.98;0.50;;;;;;;13.38;100.00;96924.59;5014547;28;20077;-76
2022/05/27 08:16:26;;;;;;;1.10;0.50;;;;;;;13.51;100.00;96929.56;5016840;28;20041;-73
2022/05/27 08:18:52;;;;;;;1.17;0.60;;;;;;;13.67;100.00;96927.81;5017659;28;20048;-73
2022/05/27 08:21:17;;;;;;;3.30;0.90;;;;;;;13.74;100.00;96923.03;5013562;28;20472;-74
2022/05/27 08:23:43;;;;;;;1.38;0.60;;;;;;;13.83;100.00;96943.00;5012919;28;20037;-74
2022/05/27 08:26:08;;;;;;;2.72;0.50;;;;;;;13.90;100.00;96921.28;5018106;28;20077;-73
2022/05/27 08:28:34;;;;;;;1.05;0.50;;;;;;;14.03;100.00;96939.66;5018886;28;20145;-73
2022/05/27 08:30:59;;;;;;;1.05;0.40;;;;;;;13.85;100.00;96923.91;5016724;28;20500;-75
2022/05/27 08:38:00;;;;;;;1.08;0.40;;;;;;;13.78;100.00;96934.09;5007616;28;20317;-73
2022/05/27 08:39:03;;;;;;;1.05;0.50;;;;;;;13.60;100.00;96938.78;5012682;28;20029;-76
2022/05/27 08:41:51;;;;;;;1.25;0.57;;;;;;;13.25;100.00;96943.84;5019083;28;20040;-75
2022/05/27 08:44:35;;;;;;;2.63;0.80;;;;;;;13.00;100.00;96950.53;5018129;28;20044;-73
2022/05/27 08:47:44;;;;;;;2.38;0.88;;;;;;;12.94;100.00;96950.72;4999191;28;20128;-76
2022/05/27 08:50:26;;;;;;;3.10;1.10;;;;;;;12.88;100.00;96957.91;4996579;28;20038;-74
2022/05/27 08:53:13;;;;;;;4.60;1.25;;;;;;;13.09;100.00;96962.47;5015942;28;20191;-76
2022/05/27 09:01:28;;;;;;;2.53;1.15;;;;;;;13.36;100.00;96970.56;5016509;28;20098;-72
2022/05/27 09:04:07;;;;;;;2.88;1.27;;;;;;;13.44;100.00;96976.53;5016659;28;20049;-73
2022/05/27 09:06:39;;;;;;;2.95;1.00;;;;;;;13.52;100.00;96971.50;5016702;28;20050;-74
2022/05/27 09:09:09;;;;;;;2.15;1.00;;;;;;;13.45;100.00;96983.53;5014871;28;20041;-72
2022/05/27 09:11:46;;;;;;;2.67;1.10;;;;;;;13.84;100.00;96986.84;5020582;28;20343;-73
2022/05/27 09:14:20;;;;;;;3.88;1.17;;;;;;;14.13;100.00;96981.97;5018939;28;20392;-73
2022/05/27 09:17:07;;;;;;;7.93;1.35;;;;;;;14.25;100.00;96984.50;5022063;28;20049;-73
2022/05/27 09:19:46;;;;;;;4.55;1.23;;;;;;;14.80;100.00;96975.97;5016105;28;20041;-74
2022/05/27 09:22:28;;;;;;;3.40;1.33;;;;;;;14.68;100.00;96970.75;5018612;28;20056;-73
2022/05/27 09:25:29;;;;;;;3.20;1.60;;;;;;;14.26;100.00;96995.00;5020711;28;20049;-74
2022/05/27 09:28:19;;;;;;;3.92;1.70;;;;;;;14.08;100.00;96993.50;5018043;28;20119;-74
2022/05/27 09:30:45;;;;;;;3.78;1.45;;;;;;;13.81;100.00;97000.81;5020302;28;20056;-73
2022/05/27 09:33:12;;;;;;;2.88;1.35;;;;;;;13.91;100.00;96993.66;5018333;28;20045;-74
2022/05/27 09:35:52;;;;;;;3.88;1.50;;;;;;;13.99;100.00;96989.66;5018711;28;20099;-72
2022/05/27 09:38:31;;;;;;;3.03;1.60;;;;;;;14.22;100.00;96983.91;5016480;28;20104;-72
2022/05/27 09:41:32;;;;;;;3.25;1.60;;;;;;;14.43;100.00;96986.75;5017203;28;20037;-71
2022/05/27 09:44:36;;;;;;;14.32;2.08;;;;;;;14.21;100.00;96989.56;4999453;28;20079;-73
2022/05/27 09:47:03;;;;;;;3.92;2.17;;;;;;;14.02;100.00;96991.88;4975464;28;20168;-72
2022/05/27 09:49:30;;;;;;;6.35;2.70;;;;;;;13.75;100.00;96985.69;5000023;28;20335;-72
2022/05/27 09:51:56;;;;;;;8.48;3.05;;;;;;;13.60;100.00;96997.13;5014290;28;20844;-71
2022/05/27 09:54:34;;;;;;;9.75;3.13;;;;;;;13.83;100.00;96996.00;5016461;28;20049;-71
2022/05/27 09:57:25;;;;;;;6.68;3.40;;;;;;;13.89;100.00;96993.09;5016620;28;20284;-74
2022/05/27 09:59:57;;;;;;;8.75;3.53;;;;;;;14.27;100.00;96988.53;5017274;28;20515;-72
2022/05/27 10:02:25;;;;;;;6.97;4.00;;;;;;;14.60;100.00;96983.91;5014167;28;20057;-71
2022/05/27 10:04:58;;;;;;;8.90;3.88;;;;;;;14.28;100.00;96992.03;5017467;28;20037;-74
2022/05/27 10:07:27;;;;;;;11.20;3.80;;;;;;;14.08;100.00;96982.75;5016273;28;20048;-72
2022/05/27 10:09:52;;;;;;;12.02;3.72;;;;;;;14.19;100.00;96983.66;5020029;28;20435;-72
2022/05/27 10:12:32;;;;;;;10.50;3.47;;;;;;;14.63;100.00;96986.91;5020121;28;20581;-73
2022/05/27 10:14:58;;;;;;;13.18;4.22;;;;;;;15.16;100.00;96978.78;5018647;28;20581;-72
2022/05/27 10:17:36;;;;;;;11.05;3.60;;;;;;;15.19;100.00;96981.75;5034841;28;20037;-72
2022/05/27 10:20:17;;;;;;;11.50;4.95;;;;;;;14.96;100.00;96972.25;5017118;28;20531;-73
2022/05/27 10:22:55;;;;;;;;;;;;;;;15.83;100.00;96988.66;5015636;28;20041;-73
2022/05/27 10:25:29;;;;;;;13.20;4.30;;;;;;;15.74;100.00;96982.97;4668208;28;9999640;-72
2022/05/27 10:27:55;;;;;;;13.82;3.88;;;;;;;15.60;100.00;96979.97;5012534;28;20069;-74
2022/05/27 10:30:28;;;;;;;10.63;3.92;;;;;;;15.14;100.00;96983.63;5013705;28;20459;-72
2022/05/27 10:32:55;;;;;;;8.57;4.38;;;;;;;14.98;100.00;96986.25;5014563;28;20037;-72
2022/05/27 10:35:20;;;;;;;10.88;3.30;;;;;;;14.82;100.00;96981.06;5016466;28;20037;-74
2022/05/27 10:38:11;;;;;;;10.32;3.50;;;;;;;14.61;100.00;96988.22;5013819;28;20378;-72
2022/05/27 10:40:42;;;;;;;11.38;3.90;;;;;;;14.38;100.00;96976.75;5014999;28;20146;-73
2022/05/27 10:43:21;;;;;;;;;;;;;;;14.21;100.00;96985.00;5013206;28;20103;-72
2022/05/27 10:45:52;;;;;;;12.30;4.57;;;;;;;14.12;100.00;96983.06;5017808;28;20376;-73
2022/05/27 10:48:39;;;;;;;13.02;3.95;;;;;;;14.42;100.00;96987.84;5014588;28;20486;-73
2022/05/27 10:51:11;;;;;;;14.13;4.43;;;;;;;14.70;100.00;96995.56;5017275;28;20052;-73
2022/05/27 10:53:52;;;;;;;12.75;4.50;;;;;;;15.24;100.00;96986.34;5029992;28;20098;-73
2022/05/27 10:56:32;;;;;;;11.63;4.22;;;;;;;15.67;100.00;96979.72;5014218;28;20047;-74
2022/05/27 11:02:22;;;;;;;13.00;5.78;;;;;;;16.21;100.00;96981.09;5013356;28;20046;-73
2022/05/27 11:05:09;;;;;;;15.95;5.47;;;;;;;16.59;100.00;96972.38;5014069;28;20045;-72
2022/05/27 11:07:57;;;;;;;11.70;4.75;;;;;;;17.36;100.00;96969.41;5014635;28;20046;-74
2022/05/27 11:10:43;;;;;;;15.00;5.50;;;;;;;17.70;100.00;96972.16;5012856;28;20049;-72
2022/05/27 11:16:11;;;;;;;13.82;5.35;;;;;;;18.59;100.00;96954.59;5018964;28;20440;-73
2022/05/27 11:18:45;;;;;;;11.23;5.00;;;;;;;19.28;100.00;96962.47;5015960;28;20037;-72
2022/05/27 11:21:46;;;;;;;17.20;5.93;;;;;;;20.78;100.00;96948.66;5014227;28;20492;-72
2022/05/27 11:24:33;;;;;;;9.82;4.72;;;;;;;21.11;98.46;96956.72;5015562;28;20425;-72
2022/05/27 11:27:12;;;;;;;11.43;5.25;;;;;;;21.46;96.67;96957.06;5013711;28;20053;-73
2022/05/27 11:29:58;;;;;;;12.80;5.03;;;;;;;21.83;93.40;96937.69;5015551;28;20049;-72
2022/05/27 11:32:35;;;;;;;12.32;5.80;;;;;;;24.69;79.58;96922.72;5014469;28;20045;-72
2022/05/27 11:35:24;;;;;;;10.20;4.72;;;;;;;26.44;63.69;96921.13;5009543;28;20132;-74
2022/05/27 11:38:32;;;;;;;13.48;5.22;;;;;;;25.75;66.72;96924.53;5012531;28;20037;-74
2022/05/27 11:41:23;;;;;;;10.25;5.32;;;;;;;23.41;79.35;96913.53;4974411;28;20076;-75
2022/05/27 11:44:14;;;;;;;13.73;5.65;;;;;;;22.44;85.15;96928.00;5012688;28;20040;-72
2022/05/27 11:46:47;;;;;;;12.47;5.40;;;;;;;21.42;93.54;96930.47;5012819;28;20553;-73
2022/05/27 11:49:41;;;;;;;8.98;5.25;;;;;;;22.61;84.77;96921.00;5012384;28;20140;-73
2022/05/27 11:52:25;;;;;;;11.07;4.82;;;;;;;23.78;77.32;96909.41;5013445;28;20107;-73
2022/05/27 11:55:22;;;;;;;8.13;4.60;;;;;;;24.31;68.70;96906.25;5012241;28;20147;-73
2022/05/27 11:57:56;;;;;;;11.70;5.13;;;;;;;22.29;87.25;96906.59;5012736;28;20041;-73
2022/05/27 12:00:26;;;;;;;8.85;5.22;;;;;;;26.84;60.99;96895.78;5013746;28;20051;-74
2022/05/27 12:03:33;;;;;;;9.75;4.60;;;;;;;23.53;78.19;96935.56;5015698;28;20084;-75
2022/05/27 12:06:07;;;;;;;9.80;6.28;;;;;;;26.27;59.59;96891.13;5020848;28;20547;-73
2022/05/27 12:08:55;;;;;;;9.85;5.53;;;;;;;29.22;45.73;96887.13;5016757;28;20049;-75
2022/05/27 12:11:24;;;;;;;12.55;5.57;;;;;;;30.18;41.35;96881.66;5016863;28;20049;-73
2022/05/27 12:13:54;;;;;;;8.60;4.38;;;;;;;30.45;36.55;96881.78;5016993;28;20127;-73
2022/05/27 12:16:27;;;;;;;15.48;5.38;;;;;;;28.89;41.12;96887.50;5016200;28;20564;-72
2022/05/27 12:19:18;;;;;;;9.70;4.38;;;;;;;29.65;35.92;96872.31;5026472;28;20038;-73
2022/05/27 12:21:55;;;;;;;10.88;4.28;;;;;;;30.49;33.71;96869.59;5015015;28;20056;-73